Aviation Digital Data Service (ADDS)

Output produced by TAFs form (0123 UTC 02 April 2015)
found at http://aviationweather.gov/adds/tafs/
 
KTEX 012332Z 0200/0224 09007KT P6SM VCSH FEW090 SCT110 
     TEMPO 0200/0202 26010G20KT 
     FM020200 17006KT P6SM SCT100 BKN200 
     FM020700 14004KT P6SM SCT250 
     FM021600 21010G15KT P6SM SCT080 BKN250